Terminal Aerodrome Forecast
Issued by NWS

Home | Current Version | Previous Version | Text Only | Print | Product List | Glossary On
Versions: 1 2 3 4 5 6 7 8 9 10 11 12 13
507
FTUS46 KPDT 282320
TAFDLS
TAF
KDLS 282320Z 2900/2924 31011G18KT P6SM SCT070 BKN200
     FM290400 30009KT P6SM SCT150
     FM291500 31012G20KT P6SM SCT150
     FM292100 31020G28KT P6SM FEW150=

USA.gov is the U.S. government's official web portal to all federal, state and local government web resources and services.